createdAt,value
2023-04-10T00:00:01.680Z,23.75
2023-04-10T00:02:29.150Z,22.75
2023-04-10T00:04:56.296Z,22.40
2023-04-10T00:07:23.335Z,22.42
2023-04-10T00:09:50.304Z,23.15
2023-04-10T00:12:17.626Z,22.88
2023-04-10T00:14:44.551Z,21.70
2023-04-10T00:17:11.588Z,21.10
2023-04-10T00:19:38.348Z,22.15
2023-04-10T00:22:05.953Z,20.85
2023-04-10T00:24:32.656Z,21.23
2023-04-10T00:26:59.781Z,22.85
2023-04-10T00:29:26.615Z,22.80
2023-04-10T00:31:53.816Z,22.25
2023-04-10T00:34:20.776Z,22.00
2023-04-10T00:36:47.879Z,20.75
2023-04-10T00:39:14.672Z,21.70
2023-04-10T00:41:41.736Z,22.35
2023-04-10T00:44:08.927Z,23.08
2023-04-10T00:46:37.544Z,21.83
2023-04-10T00:49:04.379Z,21.33
2023-04-10T00:51:31.411Z,21.33
2023-04-10T00:53:58.128Z,20.45
2023-04-10T00:56:25.520Z,20.33
2023-04-10T00:58:52.288Z,20.85
2023-04-10T01:01:19.457Z,21.38
2023-04-10T01:03:46.303Z,21.50
2023-04-10T01:06:35.334Z,22.48
2023-04-10T01:09:29.640Z,22.75
2023-04-10T01:11:56.677Z,21.13
2023-04-10T01:14:36.540Z,21.08
2023-04-10T01:17:13.975Z,22.38
2023-04-10T01:20:22.481Z,22.20
2023-04-10T01:23:04.639Z,21.83
2023-04-10T01:25:41.398Z,24.20
2023-04-10T01:28:23.619Z,21.92
2023-04-10T01:30:55.955Z,23.17
2023-04-10T01:33:23.161Z,25.60
2023-04-10T01:35:52.507Z,25.23
2023-04-10T01:38:20.733Z,25.92
2023-04-10T01:40:51.381Z,24.48
2023-04-10T01:43:18.426Z,25.00
2023-04-10T01:45:45.242Z,26.00
2023-04-10T01:48:12.353Z,26.88
2023-04-10T01:50:39.139Z,25.75
2023-04-10T01:53:06.322Z,26.05
2023-04-10T01:55:33.514Z,25.48
2023-04-10T01:58:00.964Z,25.73
2023-04-10T02:00:28.180Z,25.27
2023-04-10T02:02:55.531Z,25.88
2023-04-10T02:05:23.142Z,25.42
2023-04-10T02:07:52.471Z,26.75
2023-04-10T02:10:24.956Z,25.30
2023-04-10T02:13:01.001Z,25.98
2023-04-10T02:15:28.617Z,26.90
2023-04-10T02:17:55.702Z,27.92
2023-04-10T02:20:23.045Z,28.27
2023-04-10T02:22:50.745Z,26.50
2023-04-10T02:25:17.561Z,26.27
2023-04-10T02:27:44.958Z,27.83
2023-04-10T02:30:11.839Z,28.65
2023-04-10T02:32:38.968Z,27.65
2023-04-10T02:35:05.889Z,26.35
2023-04-10T02:37:33.283Z,28.63
2023-04-10T02:40:00.213Z,27.35
2023-04-10T02:42:27.375Z,27.75
2023-04-10T02:44:54.147Z,29.17
2023-04-10T02:47:21.241Z,27.65
2023-04-10T02:49:48.379Z,27.58
2023-04-10T02:52:16.523Z,27.33
2023-04-10T02:54:43.447Z,28.33
2023-04-10T02:57:10.922Z,26.73
2023-04-10T02:59:37.817Z,26.15
2023-04-10T03:02:05.028Z,26.85
2023-04-10T03:04:32.574Z,26.98
2023-04-10T03:06:59.611Z,26.90
2023-04-10T03:09:26.564Z,26.52
2023-04-10T03:11:53.588Z,27.35
2023-04-10T03:14:20.409Z,26.35
2023-04-10T03:16:47.979Z,26.65
2023-04-10T03:19:14.773Z,27.15
2023-04-10T03:21:42.275Z,26.30
2023-04-10T03:24:09.022Z,26.58
2023-04-10T03:26:36.076Z,27.83
2023-04-10T03:29:02.892Z,28.00
2023-04-10T03:31:29.971Z,26.20
2023-04-10T03:33:57.188Z,26.23
2023-04-10T03:36:24.388Z,25.90
2023-04-10T03:38:52.841Z,26.13
2023-04-10T03:41:19.996Z,25.10
2023-04-10T03:43:46.735Z,25.63
2023-04-10T03:46:13.829Z,26.35
2023-04-10T03:48:41.292Z,27.17
2023-04-10T03:51:08.501Z,27.65
2023-04-10T03:53:36.431Z,28.05
2023-04-10T03:56:03.883Z,26.92
2023-04-10T03:58:30.716Z,26.20
2023-04-10T04:00:57.788Z,27.65
2023-04-10T04:03:24.796Z,27.77
2023-04-10T04:05:52.430Z,27.52
2023-04-10T04:08:19.216Z,26.77
2023-04-10T04:10:46.273Z,28.40
2023-04-10T04:13:13.029Z,27.77
2023-04-10T04:15:40.301Z,27.02
2023-04-10T04:18:07.088Z,28.70
2023-04-10T04:20:34.182Z,28.08
2023-04-10T04:23:01.063Z,27.27
2023-04-10T04:25:28.078Z,27.95
2023-04-10T04:27:54.805Z,28.45
2023-04-10T04:30:21.963Z,28.50
2023-04-10T04:32:48.770Z,28.25
2023-04-10T04:35:15.959Z,28.92
2023-04-10T04:37:42.758Z,27.40
2023-04-10T04:40:10.388Z,28.67
2023-04-10T04:42:37.421Z,28.60
2023-04-10T04:45:04.987Z,29.23
2023-04-10T04:47:31.765Z,27.48
2023-04-10T04:49:58.790Z,26.88
2023-04-10T04:52:25.720Z,26.55
2023-04-10T04:54:52.772Z,29.50
2023-04-10T04:57:19.537Z,28.58
2023-04-10T04:59:46.601Z,28.23
2023-04-10T05:02:13.476Z,27.67
2023-04-10T05:04:40.774Z,27.88
2023-04-10T05:07:07.566Z,27.92
2023-04-10T05:09:34.666Z,28.67
2023-04-10T05:12:01.536Z,29.73
2023-04-10T05:14:28.580Z,29.45
2023-04-10T05:16:55.318Z,29.95
2023-04-10T05:19:22.495Z,28.58
2023-04-10T05:21:49.346Z,32.42
2023-04-10T05:24:16.402Z,29.15
2023-04-10T05:26:43.178Z,30.95
2023-04-10T05:29:10.321Z,31.60
2023-04-10T05:31:37.127Z,29.92
2023-04-10T05:34:04.214Z,31.95
2023-04-10T05:36:32.224Z,31.83
2023-04-10T05:38:59.290Z,31.38
2023-04-10T05:41:26.048Z,31.05
2023-04-10T05:43:53.149Z,32.83
2023-04-10T05:46:19.969Z,32.47
2023-04-10T05:48:47.086Z,31.38
2023-04-10T05:51:13.886Z,32.22
2023-04-10T05:53:40.923Z,32.10
2023-04-10T05:56:08.162Z,33.08
2023-04-10T05:58:35.211Z,32.92
2023-04-10T06:01:01.950Z,32.85
2023-04-10T06:03:30.882Z,31.30
2023-04-10T06:05:58.427Z,31.17
2023-04-10T06:08:25.683Z,32.42
2023-04-10T06:10:52.468Z,33.08
2023-04-10T06:13:19.585Z,33.92
2023-04-10T06:15:46.356Z,32.50
2023-04-10T06:18:13.689Z,36.25
2023-04-10T06:20:40.420Z,33.45
2023-04-10T06:23:07.547Z,35.95
2023-04-10T06:25:34.364Z,34.72
2023-04-10T06:28:01.478Z,36.17
2023-04-10T06:30:28.373Z,36.22
2023-04-10T06:32:55.711Z,36.60
2023-04-10T06:35:22.743Z,37.15
2023-04-10T06:37:49.808Z,38.60
2023-04-10T06:40:16.652Z,35.38
2023-04-10T06:42:43.777Z,37.80
2023-04-10T06:45:10.844Z,37.08
2023-04-10T06:47:37.935Z,38.22
2023-04-10T06:50:05.388Z,38.10
2023-04-10T06:52:32.809Z,37.10
2023-04-10T06:54:59.839Z,39.45
2023-04-10T06:57:27.004Z,40.00
2023-04-10T06:59:53.856Z,37.85
2023-04-10T07:02:21.397Z,37.33
2023-04-10T07:04:48.321Z,40.15
2023-04-10T07:07:16.036Z,40.92
2023-04-10T07:09:43.804Z,39.90
2023-04-10T07:12:11.032Z,40.78
2023-04-10T07:14:37.786Z,40.50
2023-04-10T07:17:04.925Z,38.22
2023-04-10T07:19:31.737Z,43.53
2023-04-10T07:21:59.424Z,40.10
2023-04-10T07:24:26.418Z,41.30
2023-04-10T07:26:53.605Z,41.60
2023-04-10T07:29:20.784Z,41.75
2023-04-10T07:31:48.007Z,40.67
2023-04-10T07:34:14.988Z,42.80
2023-04-10T07:36:42.064Z,40.45
2023-04-10T07:39:08.803Z,40.60
2023-04-10T07:41:35.966Z,42.28
2023-04-10T07:44:02.752Z,44.70
2023-04-10T07:46:29.823Z,41.97
2023-04-10T07:48:56.784Z,42.45
2023-04-10T07:51:23.984Z,41.30
2023-04-10T07:53:50.747Z,40.53
2023-04-10T07:56:18.504Z,41.47
2023-04-10T07:58:45.993Z,41.05
2023-04-10T08:01:13.289Z,41.70
2023-04-10T08:03:44.632Z,41.22
2023-04-10T08:06:11.982Z,38.72
2023-04-10T08:08:39.574Z,39.63
2023-04-10T08:11:08.311Z,39.50
2023-04-10T08:13:35.209Z,38.83
2023-04-10T08:16:02.685Z,39.58
2023-04-10T08:18:29.477Z,39.60
2023-04-10T08:20:56.613Z,36.95
2023-04-10T08:23:23.661Z,36.60
2023-04-10T08:25:50.740Z,39.08
2023-04-10T08:28:17.757Z,37.33
2023-04-10T08:30:44.893Z,37.75
2023-04-10T08:33:11.649Z,37.47
2023-04-10T08:35:38.785Z,38.22
2023-04-10T08:38:13.481Z,39.90
2023-04-10T08:40:41.666Z,39.67
2023-04-10T08:43:08.526Z,38.10
2023-04-10T08:45:35.556Z,39.92
2023-04-10T08:48:05.857Z,40.65
2023-04-10T08:50:33.957Z,39.75
2023-04-10T08:53:00.787Z,39.38
2023-04-10T08:55:27.883Z,41.75
2023-04-10T08:58:00.976Z,39.53
2023-04-10T09:00:29.094Z,38.17
2023-04-10T09:02:58.353Z,38.00
2023-04-10T09:05:27.114Z,39.40
2023-04-10T09:07:53.865Z,40.53
2023-04-10T09:10:21.150Z,41.20
2023-04-10T09:12:48.359Z,39.60
2023-04-10T09:15:15.526Z,42.00
2023-04-10T09:18:01.173Z,40.08
2023-04-10T09:20:29.832Z,38.28
2023-04-10T09:22:56.767Z,41.38
2023-04-10T09:25:31.341Z,43.15
2023-04-10T09:28:08.863Z,40.72
2023-04-10T09:30:42.655Z,41.00
2023-04-10T09:33:30.160Z,41.95
2023-04-10T09:35:58.049Z,42.83
2023-04-10T09:38:25.905Z,41.83
2023-04-10T09:40:54.418Z,41.17
2023-04-10T09:43:25.842Z,41.72
2023-04-10T09:45:54.398Z,44.15
2023-04-10T09:48:22.081Z,41.80
2023-04-10T09:50:49.166Z,42.05
2023-04-10T09:53:19.178Z,43.78
2023-04-10T09:55:47.226Z,43.88
2023-04-10T09:58:14.222Z,44.90
2023-04-10T10:00:48.588Z,44.38
2023-04-10T10:03:16.966Z,43.63
2023-04-10T10:05:51.161Z,44.30
2023-04-10T10:08:17.981Z,45.05
2023-04-10T10:10:50.487Z,44.42
2023-04-10T10:13:50.365Z,43.03
2023-04-10T10:16:33.913Z,42.50
2023-04-10T10:19:13.810Z,41.90
2023-04-10T10:21:40.918Z,44.15
2023-04-10T10:24:08.581Z,41.90
2023-04-10T10:26:37.909Z,42.60
2023-04-10T10:29:06.665Z,43.35
2023-04-10T10:31:35.280Z,42.90
2023-04-10T10:34:07.026Z,44.40
2023-04-10T10:36:34.894Z,43.70
2023-04-10T10:39:11.210Z,47.60
2023-04-10T10:41:41.085Z,46.65
2023-04-10T10:44:29.730Z,45.85
2023-04-10T10:47:19.014Z,46.50
2023-04-10T10:49:53.166Z,46.97
2023-04-10T10:52:57.434Z,47.55
2023-04-10T10:55:37.019Z,47.80
2023-04-10T10:58:05.383Z,48.72
2023-04-10T11:00:50.443Z,46.53
2023-04-10T11:03:17.679Z,45.88
2023-04-10T11:05:51.313Z,47.80
2023-04-10T11:08:18.649Z,51.15
2023-04-10T11:11:06.071Z,56.30
2023-04-10T11:13:33.229Z,53.95
2023-04-10T11:16:02.118Z,51.97
2023-04-10T11:18:44.656Z,50.15
2023-04-10T11:21:12.915Z,51.05
2023-04-10T11:24:00.841Z,51.78
2023-04-10T11:26:33.440Z,50.35
2023-04-10T11:29:15.472Z,49.33
2023-04-10T11:31:42.371Z,48.25
2023-04-10T11:34:10.642Z,48.88
2023-04-10T11:36:44.081Z,48.22
2023-04-10T11:39:21.639Z,48.55
2023-04-10T11:41:52.584Z,47.30
2023-04-10T11:44:27.397Z,47.70
2023-04-10T11:46:54.190Z,47.78
2023-04-10T11:49:26.535Z,48.85
2023-04-10T11:51:53.399Z,46.78
2023-04-10T11:54:24.650Z,44.72
2023-04-10T11:57:04.875Z,44.28
2023-04-10T11:59:32.828Z,44.88
2023-04-10T12:02:14.766Z,44.45
2023-04-10T12:04:43.644Z,45.03
2023-04-10T12:07:11.073Z,43.35
2023-04-10T12:09:38.292Z,43.70
2023-04-10T12:12:06.109Z,42.35
2023-04-10T12:14:41.451Z,42.78
2023-04-10T12:17:09.535Z,40.78
2023-04-10T12:19:36.701Z,41.70
2023-04-10T12:22:03.452Z,38.38
2023-04-10T12:24:49.267Z,39.78
2023-04-10T12:27:29.010Z,39.60
2023-04-10T12:29:57.367Z,36.20
2023-04-10T12:32:24.820Z,37.95
2023-04-10T12:34:59.139Z,38.65
2023-04-10T12:37:26.610Z,36.92
2023-04-10T12:39:53.887Z,36.67
2023-04-10T12:42:22.655Z,34.63
2023-04-10T12:44:57.201Z,35.83
2023-04-10T12:47:24.163Z,37.33
2023-04-10T12:50:08.306Z,35.90
2023-04-10T12:52:35.246Z,35.90
2023-04-10T12:55:19.010Z,33.35
2023-04-10T12:57:47.814Z,31.30
2023-04-10T13:00:17.109Z,32.92
2023-04-10T13:02:44.524Z,33.03
2023-04-10T13:05:11.978Z,32.40
2023-04-10T13:07:39.047Z,32.60
2023-04-10T13:10:07.317Z,30.52
2023-04-10T13:12:39.042Z,30.90
2023-04-10T13:15:07.616Z,31.02
2023-04-10T13:17:34.825Z,28.55
2023-04-10T13:20:02.446Z,29.52
2023-04-10T13:22:29.262Z,31.17
2023-04-10T13:24:56.385Z,28.15
2023-04-10T13:27:23.171Z,28.25
2023-04-10T13:29:50.443Z,28.15
2023-04-10T13:32:17.217Z,27.83
2023-04-10T13:34:44.313Z,27.33
2023-04-10T13:37:13.153Z,27.15
2023-04-10T13:39:40.322Z,27.30
2023-04-10T13:42:07.075Z,27.02
2023-04-10T13:44:34.127Z,25.88
2023-04-10T13:47:01.423Z,24.90
2023-04-10T13:49:31.734Z,26.25
2023-04-10T13:51:58.552Z,24.45
2023-04-10T13:54:26.510Z,24.40
2023-04-10T13:56:54.718Z,23.92
2023-04-10T13:59:22.090Z,24.13
2023-04-10T14:01:50.996Z,23.98
2023-04-10T14:04:18.735Z,23.27
2023-04-10T14:06:45.457Z,23.23
2023-04-10T14:09:12.536Z,22.45
2023-04-10T14:11:39.293Z,22.02
2023-04-10T14:14:06.348Z,22.65
2023-04-10T14:16:33.178Z,22.35
2023-04-10T14:19:00.229Z,21.75
2023-04-10T14:21:27.458Z,22.60
2023-04-10T14:23:54.589Z,22.27
2023-04-10T14:26:21.648Z,21.85
2023-04-10T14:28:48.787Z,22.63
2023-04-10T14:31:15.590Z,21.45
2023-04-10T14:33:42.799Z,20.67
2023-04-10T14:36:09.808Z,20.90
2023-04-10T14:38:36.998Z,21.02
2023-04-10T14:41:03.900Z,20.08
2023-04-10T14:43:31.095Z,20.33
2023-04-10T14:45:57.836Z,19.67
2023-04-10T14:48:25.584Z,20.88
2023-04-10T14:50:52.453Z,19.15
2023-04-10T14:53:21.619Z,21.20
2023-04-10T14:55:49.079Z,19.88
2023-04-10T14:58:17.417Z,19.08
2023-04-10T15:00:44.478Z,18.60
2023-04-10T15:03:11.727Z,19.38
2023-04-10T15:05:38.596Z,19.48
2023-04-10T15:08:05.818Z,20.13
2023-04-10T15:10:32.634Z,20.42
2023-04-10T15:12:59.744Z,22.05
2023-04-10T15:15:26.529Z,20.88
2023-04-10T15:17:54.161Z,21.80
2023-04-10T15:20:20.944Z,21.25
2023-04-10T15:22:48.307Z,19.55
2023-04-10T15:25:15.284Z,19.67
2023-04-10T15:27:42.374Z,19.95
2023-04-10T15:30:09.542Z,21.20
2023-04-10T15:32:38.014Z,20.50
2023-04-10T15:35:05.840Z,22.00
2023-04-10T15:37:34.955Z,21.23
2023-04-10T15:40:02.270Z,21.60
2023-04-10T15:42:29.413Z,20.55
2023-04-10T15:44:56.174Z,20.52
2023-04-10T15:47:23.369Z,20.30
2023-04-10T15:49:50.148Z,20.73
2023-04-10T15:52:17.192Z,21.02
2023-04-10T15:54:44.004Z,20.08
2023-04-10T15:57:11.040Z,20.13
2023-04-10T15:59:37.791Z,19.42
2023-04-10T16:02:04.976Z,20.67
2023-04-10T16:04:32.002Z,22.70
2023-04-10T16:06:59.260Z,21.65
2023-04-10T16:09:26.830Z,20.90
2023-04-10T16:11:54.759Z,21.67
2023-04-10T16:14:22.514Z,22.02
2023-04-10T16:16:49.957Z,22.05
2023-04-10T16:19:16.857Z,20.98
2023-04-10T16:21:43.919Z,22.77
2023-04-10T16:24:10.737Z,23.33
2023-04-10T16:26:37.800Z,22.83
2023-04-10T16:29:04.609Z,21.73
2023-04-10T16:31:31.742Z,22.05
2023-04-10T16:33:58.612Z,20.67
2023-04-10T16:36:27.093Z,21.73
2023-04-10T16:38:54.097Z,21.50
2023-04-10T16:41:21.573Z,22.20
2023-04-10T16:43:48.486Z,22.67
2023-04-10T16:46:15.701Z,21.17
2023-04-10T16:48:42.475Z,22.48
2023-04-10T16:51:16.763Z,21.45
2023-04-10T16:53:43.608Z,23.00
2023-04-10T16:56:10.838Z,23.17
2023-04-10T16:58:38.163Z,24.58
2023-04-10T17:01:19.405Z,26.15
2023-04-10T17:03:47.511Z,27.08
2023-04-10T17:06:15.983Z,27.90
2023-04-10T17:08:43.205Z,28.45
2023-04-10T17:11:12.501Z,29.40
2023-04-10T17:13:40.481Z,27.90
2023-04-10T17:16:08.287Z,26.95
2023-04-10T17:18:35.515Z,27.05
2023-04-10T17:21:02.641Z,27.58
2023-04-10T17:23:29.847Z,27.67
2023-04-10T17:25:56.995Z,27.90
2023-04-10T17:28:23.832Z,26.20
2023-04-10T17:30:50.971Z,25.52
2023-04-10T17:33:17.800Z,26.90
2023-04-10T17:35:44.884Z,26.65
2023-04-10T17:38:11.723Z,26.70
2023-04-10T17:40:40.991Z,26.15
2023-04-10T17:43:08.201Z,25.15
2023-04-10T17:45:38.765Z,26.15
2023-04-10T17:48:06.220Z,25.45
2023-04-10T17:50:33.456Z,26.42
2023-04-10T17:53:00.717Z,26.02
2023-04-10T17:55:27.940Z,25.27
2023-04-10T17:57:56.922Z,26.35
2023-04-10T18:00:24.320Z,25.45
2023-04-10T18:02:53.077Z,25.25
2023-04-10T18:05:20.475Z,26.13
2023-04-10T18:07:47.463Z,27.95
2023-04-10T18:10:14.580Z,29.83
2023-04-10T18:12:41.419Z,29.15
2023-04-10T18:15:09.430Z,29.08
2023-04-10T18:17:38.799Z,27.95
2023-04-10T18:20:09.994Z,29.83
2023-04-10T18:22:36.784Z,30.25
2023-04-10T18:25:05.326Z,28.95
2023-04-10T18:27:34.435Z,29.23
2023-04-10T18:30:01.626Z,28.88
2023-04-10T18:32:28.450Z,28.40
2023-04-10T18:34:55.813Z,27.88
2023-04-10T18:37:22.644Z,28.40
2023-04-10T18:39:49.827Z,28.15
2023-04-10T18:42:16.602Z,29.73
2023-04-10T18:44:43.643Z,28.33
2023-04-10T18:47:11.301Z,29.13
2023-04-10T18:49:38.532Z,27.88
2023-04-10T18:52:05.445Z,29.45
2023-04-10T18:54:33.870Z,29.27
2023-04-10T18:57:01.025Z,28.50
2023-04-10T18:59:28.412Z,30.48
2023-04-10T19:01:55.779Z,32.38
2023-04-10T19:04:23.155Z,34.70
2023-04-10T19:06:50.282Z,36.08
2023-04-10T19:09:17.716Z,36.75
2023-04-10T19:11:44.699Z,37.42
2023-04-10T19:14:12.247Z,39.08
2023-04-10T19:16:39.423Z,43.75
2023-04-10T19:19:07.672Z,45.13
2023-04-10T19:21:34.650Z,43.97
2023-04-10T19:24:01.967Z,45.25
2023-04-10T19:26:28.919Z,41.72
2023-04-10T19:28:55.972Z,43.28
2023-04-10T19:31:24.007Z,42.38
2023-04-10T19:33:51.217Z,43.08
2023-04-10T19:36:18.619Z,42.85
2023-04-10T19:38:49.003Z,43.00
2023-04-10T19:41:16.401Z,41.30
2023-04-10T19:43:43.778Z,43.38
2023-04-10T19:46:18.511Z,41.03
2023-04-10T19:48:45.903Z,39.85
2023-04-10T19:51:13.482Z,40.58
2023-04-10T19:53:41.041Z,42.45
2023-04-10T19:56:08.332Z,40.30
2023-04-10T19:58:39.989Z,40.30
2023-04-10T20:01:12.284Z,41.90
2023-04-10T20:03:39.584Z,41.28
2023-04-10T20:06:07.701Z,44.00
2023-04-10T20:08:34.916Z,41.30
2023-04-10T20:11:05.842Z,43.47
2023-04-10T20:13:33.871Z,44.83
2023-04-10T20:16:01.073Z,41.67
2023-04-10T20:18:27.920Z,45.13
2023-04-10T20:20:55.076Z,44.95
2023-04-10T20:23:21.902Z,44.67
2023-04-10T20:25:49.126Z,42.60
2023-04-10T20:28:16.884Z,44.67
2023-04-10T20:30:44.193Z,40.97
2023-04-10T20:33:11.151Z,42.83
2023-04-10T20:35:38.756Z,42.53
2023-04-10T20:38:05.793Z,42.45
2023-04-10T20:40:32.925Z,43.47
2023-04-10T20:42:59.797Z,44.25
2023-04-10T20:45:27.044Z,44.35
2023-04-10T20:47:54.052Z,46.05
2023-04-10T20:50:21.386Z,45.20
2023-04-10T20:52:48.472Z,44.38
2023-04-10T20:55:15.848Z,41.95
2023-04-10T20:57:42.649Z,44.30
2023-04-10T21:00:11.245Z,43.92
2023-04-10T21:02:38.259Z,45.95
2023-04-10T21:05:05.658Z,45.17
2023-04-10T21:07:32.515Z,44.53
2023-04-10T21:09:59.543Z,46.13
2023-04-10T21:12:26.532Z,48.10
2023-04-10T21:14:53.624Z,51.03
2023-04-10T21:17:20.547Z,50.00
2023-04-10T21:19:47.745Z,52.03
2023-04-10T21:22:14.778Z,53.55
2023-04-10T21:24:41.927Z,59.25
2023-04-10T21:27:08.834Z,59.42
2023-04-10T21:29:35.949Z,61.95
2023-04-10T21:32:02.820Z,63.42
2023-04-10T21:34:30.565Z,65.00
2023-04-10T21:36:57.394Z,59.92
2023-04-10T21:39:24.511Z,60.03
2023-04-10T21:41:51.348Z,57.58
2023-04-10T21:44:18.495Z,56.90
2023-04-10T21:46:45.231Z,56.08
2023-04-10T21:49:12.375Z,58.05
2023-04-10T21:51:40.765Z,55.28
2023-04-10T21:54:07.964Z,57.72
2023-04-10T21:56:38.848Z,56.70
2023-04-10T21:59:05.940Z,53.80
2023-04-10T22:01:33.946Z,55.53
2023-04-10T22:04:01.281Z,55.78
2023-04-10T22:06:28.176Z,55.15
2023-04-10T22:08:55.432Z,55.70
2023-04-10T22:11:22.419Z,53.45
2023-04-10T22:13:49.539Z,54.58
2023-04-10T22:16:16.512Z,56.15
2023-04-10T22:18:43.631Z,55.75
2023-04-10T22:21:10.450Z,54.85
2023-04-10T22:23:37.559Z,55.45
2023-04-10T22:26:04.445Z,57.33
2023-04-10T22:28:31.547Z,56.58
2023-04-10T22:30:58.324Z,57.85
2023-04-10T22:33:25.481Z,59.03
2023-04-10T22:35:53.649Z,59.65
2023-04-10T22:38:20.826Z,56.83
2023-04-10T22:40:47.689Z,58.63
2023-04-10T22:43:14.849Z,59.67
2023-04-10T22:45:41.889Z,58.75
2023-04-10T22:48:09.209Z,59.78
2023-04-10T22:50:36.438Z,59.45
2023-04-10T22:53:03.861Z,60.05
2023-04-10T22:55:30.796Z,60.35
2023-04-10T22:57:57.910Z,58.38
2023-04-10T23:00:24.909Z,59.78
2023-04-10T23:02:52.030Z,58.55
2023-04-10T23:05:18.917Z,59.25
2023-04-10T23:07:45.985Z,56.35
2023-04-10T23:10:12.768Z,57.35
2023-04-10T23:12:43.436Z,58.83
2023-04-10T23:15:10.803Z,57.70
2023-04-10T23:17:38.051Z,58.03
2023-04-10T23:20:05.396Z,57.53
2023-04-10T23:22:32.468Z,60.78
2023-04-10T23:24:59.453Z,60.85
2023-04-10T23:27:26.903Z,58.55
2023-04-10T23:29:53.917Z,60.70
2023-04-10T23:32:20.944Z,57.70
2023-04-10T23:34:47.708Z,54.13
2023-04-10T23:37:14.887Z,54.33
2023-04-10T23:39:41.724Z,56.10
2023-04-10T23:42:08.772Z,57.08
2023-04-10T23:44:35.776Z,54.08
2023-04-10T23:47:03.265Z,56.85
2023-04-10T23:49:30.321Z,55.22
2023-04-10T23:51:57.348Z,56.42
2023-04-10T23:54:24.093Z,55.75
2023-04-10T23:56:51.236Z,59.00
2023-04-10T23:59:19.135Z,56.05
